Time,TemperatureF,DewpointF,PressureIn,WindDirection,WindDirectionDegrees,WindSpeedMPH,WindSpeedGustMPH,Humidity,HourlyPrecipIn,Conditions,Clouds,dailyrainin,SoftwareType,DateUTC
2013-07-26 00:04:00,80.4,73.0,30.03,SE,136,0.0,2.0,78,0.00,,,0.00,weatherlink.com 1.10,2013-07-26 05:04:00,
2013-07-26 00:18:00,80.2,73.0,30.03,SE,136,0.0,1.0,79,0.00,,,0.00,weatherlink.com 1.10,2013-07-26 05:18:00,
2013-07-26 00:34:00,79.8,73.0,30.03,SE,136,0.0,0.0,80,0.00,,,0.00,weatherlink.com 1.10,2013-07-26 05:34:00,
2013-07-26 00:49:00,79.4,74.0,30.03,SE,136,0.0,1.0,82,0.00,,,0.00,weatherlink.com 1.10,2013-07-26 05:49:00,
2013-07-26 01:04:00,78.9,73.0,30.02,SE,136,0.0,1.0,83,0.00,,,0.00,weatherlink.com 1.10,2013-07-26 06:04:00,
2013-07-26 01:19:00,78.5,73.0,30.03,SE,136,0.0,1.0,84,0.00,,,0.00,weatherlink.com 1.10,2013-07-26 06:19:00,
2013-07-26 01:34:00,78.2,73.0,30.02,SE,136,0.0,0.0,85,0.00,,,0.00,weatherlink.com 1.10,2013-07-26 06:34:00,
2013-07-26 01:49:00,77.9,74.0,30.02,SE,136,0.0,0.0,86,0.00,,,0.00,weatherlink.com 1.10,2013-07-26 06:49:00,
2013-07-26 02:04:00,77.8,74.0,30.02,SE,136,0.0,0.0,87,0.00,,,0.00,weatherlink.com 1.10,2013-07-26 07:04:00,
2013-07-26 02:19:00,77.6,74.0,30.02,SE,136,0.0,0.0,87,0.00,,,0.00,weatherlink.com 1.10,2013-07-26 07:19:00,
2013-07-26 02:34:00,77.5,74.0,30.02,SE,136,0.0,0.0,88,0.00,,,0.00,weatherlink.com 1.10,2013-07-26 07:34:00,
2013-07-26 02:49:00,77.3,74.0,30.02,SE,136,0.0,0.0,88,0.00,,,0.00,weatherlink.com 1.10,2013-07-26 07:49:00,
2013-07-26 03:04:00,77.1,74.0,30.01,SE,136,0.0,0.0,89,0.00,,,0.00,weatherlink.com 1.10,2013-07-26 08:04:00,
2013-07-26 03:19:00,76.9,74.0,30.01,SE,136,0.0,0.0,89,0.00,,,0.00,weatherlink.com 1.10,2013-07-26 08:19:00,
2013-07-26 03:34:00,76.7,74.0,30.02,SE,136,0.0,0.0,90,0.00,,,0.00,weatherlink.com 1.10,2013-07-26 08:34:00,
2013-07-26 03:49:00,76.6,74.0,30.01,SE,136,0.0,0.0,90,0.00,,,0.00,weatherlink.com 1.10,2013-07-26 08:49:00,
2013-07-26 04:04:00,76.5,74.0,30.02,SE,136,0.0,0.0,90,0.00,,,0.00,weatherlink.com 1.10,2013-07-26 09:04:00,
2013-07-26 04:19:00,76.4,73.0,30.02,SE,136,0.0,0.0,90,0.00,,,0.00,weatherlink.com 1.10,2013-07-26 09:19:00,
2013-07-26 04:34:00,76.2,74.0,30.02,SE,136,0.0,0.0,91,0.00,,,0.00,weatherlink.com 1.10,2013-07-26 09:34:00,
2013-07-26 04:49:00,76.1,73.0,30.02,SE,136,0.0,0.0,91,0.00,,,0.00,weatherlink.com 1.10,2013-07-26 09:49:00,
2013-07-26 05:04:00,76.1,73.0,30.03,SE,136,0.0,0.0,91,0.00,,,0.00,weatherlink.com 1.10,2013-07-26 10:04:00,
2013-07-26 05:19:00,76.0,73.0,30.02,SE,136,0.0,0.0,91,0.00,,,0.00,weatherlink.com 1.10,2013-07-26 10:19:00,
2013-07-26 05:34:00,75.9,74.0,30.02,SE,136,0.0,0.0,92,0.00,,,0.00,weatherlink.com 1.10,2013-07-26 10:34:00,
2013-07-26 05:49:00,75.8,73.0,30.02,SE,136,0.0,0.0,91,0.00,,,0.00,weatherlink.com 1.10,2013-07-26 10:49:00,
2013-07-26 06:04:00,75.6,73.0,30.03,SE,136,0.0,0.0,91,0.00,,,0.00,weatherlink.com 1.10,2013-07-26 11:04:00,
2013-07-26 06:19:00,75.5,73.0,30.04,SE,136,0.0,0.0,92,0.00,,,0.00,weatherlink.com 1.10,2013-07-26 11:19:00,
2013-07-26 06:34:00,75.5,73.0,30.04,SE,136,0.0,0.0,92,0.00,,,0.00,weatherlink.com 1.10,2013-07-26 11:34:00,
2013-07-26 06:49:00,75.4,73.0,30.04,SE,136,0.0,1.0,92,0.00,,,0.00,weatherlink.com 1.10,2013-07-26 11:49:00,
2013-07-26 07:04:00,75.4,73.0,30.04,SE,136,0.0,0.0,92,0.00,,,0.00,weatherlink.com 1.10,2013-07-26 12:04:00,
2013-07-26 07:34:00,76.0,74.0,30.04,SE,136,0.0,0.0,92,0.00,,,0.00,weatherlink.com 1.10,2013-07-26 12:34:00,
2013-07-26 07:50:00,76.3,74.0,30.04,SE,136,0.0,2.0,92,0.00,,,0.00,weatherlink.com 1.10,2013-07-26 12:50:00,
2013-07-26 08:04:00,76.9,75.0,30.05,SE,136,0.0,2.0,92,0.00,,,0.00,weatherlink.com 1.10,2013-07-26 13:04:00,
2013-07-26 08:19:00,77.4,75.0,30.06,SE,136,0.0,1.0,91,0.00,,,0.00,weatherlink.com 1.10,2013-07-26 13:19:00,
2013-07-26 08:34:00,78.0,75.0,30.06,SE,136,0.0,1.0,90,0.00,,,0.00,weatherlink.com 1.10,2013-07-26 13:34:00,
2013-07-26 08:50:00,79.3,76.0,30.06,SE,136,1.0,3.0,88,0.00,,,0.00,weatherlink.com 1.10,2013-07-26 13:50:00,
2013-07-26 09:05:00,81.2,76.0,30.05,SSE,150,1.0,2.0,84,0.00,,,0.00,weatherlink.com 1.10,2013-07-26 14:05:00,
2013-07-26 09:19:00,82.0,76.0,30.05,SSE,166,1.0,4.0,81,0.00,,,0.00,weatherlink.com 1.10,2013-07-26 14:19:00,
2013-07-26 09:34:00,82.6,76.0,30.05,SSW,213,0.0,3.0,80,0.00,,,0.00,weatherlink.com 1.10,2013-07-26 14:34:00,
2013-07-26 09:49:00,82.9,76.0,30.05,SSE,154,0.0,3.0,80,0.00,,,0.00,weatherlink.com 1.10,2013-07-26 14:49:00,
2013-07-26 10:05:00,84.9,76.0,30.06,SSE,159,0.0,2.0,74,0.00,,,0.00,weatherlink.com 1.10,2013-07-26 15:05:00,
2013-07-26 10:20:00,84.4,76.0,30.06,SSE,167,1.0,2.0,75,0.00,,,0.00,weatherlink.com 1.10,2013-07-26 15:20:00,
2013-07-26 10:35:00,85.5,76.0,30.06,SSE,167,2.0,4.0,72,0.00,,,0.00,weatherlink.com 1.10,2013-07-26 15:35:00,
2013-07-26 10:50:00,88.9,77.0,30.06,SSE,167,0.0,3.0,67,0.00,,,0.00,weatherlink.com 1.10,2013-07-26 15:50:00,
2013-07-26 11:05:00,89.7,76.0,30.06,SSE,155,0.0,3.0,65,0.00,,,0.00,weatherlink.com 1.10,2013-07-26 16:05:00,
2013-07-26 11:20:00,88.3,75.0,30.06,SW,219,0.0,4.0,65,0.00,,,0.00,weatherlink.com 1.10,2013-07-26 16:20:00,
2013-07-26 11:35:00,91.0,75.0,30.05,South,176,1.0,4.0,60,0.00,,,0.00,weatherlink.com 1.10,2013-07-26 16:35:00,
2013-07-26 11:50:00,91.0,75.0,30.06,SSE,158,2.0,5.0,59,0.00,,,0.00,weatherlink.com 1.10,2013-07-26 16:50:00,
2013-07-26 12:05:00,90.4,75.0,30.05,SSE,154,2.0,4.0,60,0.00,,,0.00,weatherlink.com 1.10,2013-07-26 17:05:00,
2013-07-26 12:20:00,92.6,75.0,30.04,SSE,168,2.0,5.0,56,0.00,,,0.00,weatherlink.com 1.10,2013-07-26 17:20:00,
2013-07-26 12:35:00,92.5,72.0,30.03,SE,142,0.0,4.0,52,0.00,,,0.00,weatherlink.com 1.10,2013-07-26 17:35:00,
2013-07-26 12:50:00,91.8,74.0,30.02,SSE,153,0.0,3.0,56,0.00,,,0.00,weatherlink.com 1.10,2013-07-26 17:50:00,
2013-07-26 13:05:00,92.1,73.0,30.02,ESE,113,0.0,3.0,54,0.00,,,0.00,weatherlink.com 1.10,2013-07-26 18:05:00,
2013-07-26 13:20:00,91.6,72.0,30.01,SSE,167,0.0,5.0,53,0.00,,,0.00,weatherlink.com 1.10,2013-07-26 18:20:00,
2013-07-26 13:35:00,89.7,73.0,30.00,ESE,113,0.0,3.0,58,0.00,,,0.00,weatherlink.com 1.10,2013-07-26 18:35:00,
2013-07-26 13:50:00,89.4,73.0,30.00,ESE,113,0.0,2.0,59,0.00,,,0.00,weatherlink.com 1.10,2013-07-26 18:50:00,
2013-07-26 14:05:00,91.6,74.0,30.00,ESE,117,0.0,3.0,56,0.00,,,0.00,weatherlink.com 1.10,2013-07-26 19:05:00,
2013-07-26 14:20:00,92.5,74.0,29.99,SE,136,2.0,3.0,55,0.00,,,0.00,weatherlink.com 1.10,2013-07-26 19:20:00,
2013-07-26 14:35:00,91.4,74.0,29.99,SSE,161,0.0,3.0,57,0.00,,,0.00,weatherlink.com 1.10,2013-07-26 19:35:00,
2013-07-26 14:50:00,92.1,74.0,29.98,ESE,121,0.0,2.0,55,0.00,,,0.00,weatherlink.com 1.10,2013-07-26 19:50:00,
2013-07-26 15:05:00,92.6,73.0,29.98,SSW,194,2.0,5.0,53,0.00,,,0.00,weatherlink.com 1.10,2013-07-26 20:05:00,
2013-07-26 15:20:00,93.5,73.0,29.98,ESE,104,0.0,3.0,51,0.00,,,0.00,weatherlink.com 1.10,2013-07-26 20:20:00,
2013-07-26 15:35:00,94.1,74.0,29.97,SSE,164,2.0,4.0,52,0.00,,,0.00,weatherlink.com 1.10,2013-07-26 20:35:00,
2013-07-26 15:50:00,93.8,75.0,29.96,SSE,153,0.0,2.0,55,0.00,,,0.00,weatherlink.com 1.10,2013-07-26 20:50:00,
2013-07-26 16:05:00,91.6,77.0,29.96,ESE,118,0.0,3.0,63,0.00,,,0.00,weatherlink.com 1.10,2013-07-26 21:05:00,
2013-07-26 16:20:00,88.6,74.0,29.95,South,169,1.0,2.0,63,0.00,,,0.00,weatherlink.com 1.10,2013-07-26 21:20:00,
2013-07-26 16:35:00,87.6,77.0,29.95,NNW,340,0.0,1.0,70,0.00,,,0.00,weatherlink.com 1.10,2013-07-26 21:35:00,
2013-07-26 16:50:00,87.4,77.0,29.94,East,82,0.0,1.0,71,0.00,,,0.00,weatherlink.com 1.10,2013-07-26 21:50:00,
2013-07-26 17:05:00,86.1,76.0,29.94,East,82,0.0,0.0,72,0.00,,,0.00,weatherlink.com 1.10,2013-07-26 22:05:00,
2013-07-26 17:20:00,86.2,77.0,29.94,East,82,0.0,0.0,73,0.00,,,0.00,weatherlink.com 1.10,2013-07-26 22:20:00,
2013-07-26 17:35:00,86.6,78.0,29.94,East,82,0.0,1.0,75,0.00,,,0.00,weatherlink.com 1.10,2013-07-26 22:35:00,
2013-07-26 17:50:00,87.1,79.0,29.93,ESE,114,0.0,0.0,76,0.00,,,0.00,weatherlink.com 1.10,2013-07-26 22:50:00,
2013-07-26 18:05:00,87.3,77.0,29.93,ESE,114,0.0,1.0,71,0.00,,,0.00,weatherlink.com 1.10,2013-07-26 23:05:00,
2013-07-26 18:20:00,89.2,74.0,29.92,SE,125,0.0,3.0,62,0.00,,,0.00,weatherlink.com 1.10,2013-07-26 23:20:00,
2013-07-26 18:35:00,89.7,74.0,29.91,SSE,151,0.0,3.0,60,0.00,,,0.00,weatherlink.com 1.10,2013-07-26 23:35:00,
2013-07-26 18:50:00,88.9,77.0,29.91,SE,144,0.0,2.0,67,0.00,,,0.00,weatherlink.com 1.10,2013-07-26 23:50:00,
2013-07-26 19:05:00,87.4,77.0,29.90,SE,144,0.0,0.0,72,0.00,,,0.00,weatherlink.com 1.10,2013-07-27 00:05:00,
2013-07-26 19:20:00,86.1,77.0,29.90,SE,144,0.0,0.0,74,0.00,,,0.00,weatherlink.com 1.10,2013-07-27 00:20:00,
2013-07-26 19:35:00,84.6,75.0,29.90,SE,144,0.0,0.0,73,0.00,,,0.00,weatherlink.com 1.10,2013-07-27 00:35:00,
2013-07-26 19:50:00,83.5,76.0,29.90,SE,144,0.0,0.0,78,0.00,,,0.00,weatherlink.com 1.10,2013-07-27 00:50:00,
2013-07-26 20:05:00,82.6,74.0,29.90,SE,144,0.0,0.0,76,0.00,,,0.00,weatherlink.com 1.10,2013-07-27 01:05:00,
2013-07-26 20:20:00,82.3,75.0,29.90,SE,144,0.0,0.0,79,0.00,,,0.00,weatherlink.com 1.10,2013-07-27 01:20:00,
2013-07-26 20:35:00,81.7,73.0,29.90,SE,144,0.0,0.0,76,0.00,,,0.00,weatherlink.com 1.10,2013-07-27 01:35:00,
2013-07-26 20:50:00,82.4,74.0,29.90,SE,144,0.0,1.0,75,0.00,,,0.00,weatherlink.com 1.10,2013-07-27 01:50:00,
2013-07-26 21:05:00,82.9,73.0,29.91,SE,144,0.0,2.0,73,0.00,,,0.00,weatherlink.com 1.10,2013-07-27 02:05:00,
2013-07-26 21:20:00,83.0,74.0,29.90,SE,145,0.0,2.0,74,0.00,,,0.00,weatherlink.com 1.10,2013-07-27 02:20:00,
2013-07-26 21:35:00,82.5,74.0,29.91,SE,145,1.0,3.0,75,0.00,,,0.00,weatherlink.com 1.10,2013-07-27 02:35:00,
2013-07-26 21:50:00,82.2,74.0,29.91,SE,146,2.0,3.0,75,0.00,,,0.00,weatherlink.com 1.10,2013-07-27 02:50:00,
2013-07-26 22:05:00,82.3,74.0,29.91,SSE,159,0.0,4.0,76,0.00,,,0.00,weatherlink.com 1.10,2013-07-27 03:05:00,
2013-07-26 22:21:00,82.3,74.0,29.90,SSE,159,2.0,4.0,76,0.00,,,0.00,weatherlink.com 1.10,2013-07-27 03:21:00,
2013-07-26 22:36:00,82.1,74.0,29.91,SE,140,2.0,4.0,77,0.00,,,0.00,weatherlink.com 1.10,2013-07-27 03:36:00,
2013-07-26 22:51:00,81.9,74.0,29.92,SSE,159,0.0,4.0,78,0.00,,,0.00,weatherlink.com 1.10,2013-07-27 03:51:00,
2013-07-26 23:06:00,81.6,75.0,29.92,SE,136,0.0,3.0,79,0.00,,,0.00,weatherlink.com 1.10,2013-07-27 04:06:00,
2013-07-26 23:21:00,81.5,75.0,29.92,SSE,150,1.0,3.0,80,0.00,,,0.00,weatherlink.com 1.10,2013-07-27 04:21:00,
2013-07-26 23:36:00,81.4,75.0,29.93,SSE,148,2.0,4.0,80,0.00,,,0.00,weatherlink.com 1.10,2013-07-27 04:36:00,
2013-07-26 23:51:00,81.1,74.0,29.92,SE,145,0.0,6.0,80,0.00,,,0.00,weatherlink.com 1.10,2013-07-27 04:51:00,